Time;durP1;ratioP1;P1;durP2;ratioP2;P2;SDS_P1;SDS_P2;PMS_P1;PMS_P2;Temp;Humidity;BMP_temperature;BMP_pressure;BME280_temperature;BME280_humidity;BME280_pressure;Samples;Min_cycle;Max_cycle;Signal;HPM_P1;HPM_P2
2022/05/10 00:00:12;;;;;;;19.90;13.97;;;10.60;66.10;;;;;;4961131;28;46405;-65
2022/05/10 00:02:38;;;;;;;20.27;15.63;;;10.60;66.20;;;;;;4962342;28;46414;-65
2022/05/10 00:05:04;;;;;;;25.20;16.97;;;10.60;67.60;;;;;;4961978;28;46447;-65
2022/05/10 00:07:33;;;;;;;24.67;17.20;;;10.50;66.40;;;;;;4963153;28;45924;-65
2022/05/10 00:09:59;;;;;;;27.13;16.97;;;10.50;66.50;;;;;;4962283;28;46017;-64
2022/05/10 00:12:25;;;;;;;20.23;15.10;;;10.50;66.70;;;;;;4962350;28;45871;-65
2022/05/10 00:14:51;;;;;;;19.20;14.20;;;10.50;66.70;;;;;;4962279;28;46360;-65
2022/05/10 00:17:28;;;;;;;21.17;16.27;;;10.50;66.80;;;;;;4963126;28;46587;-63
2022/05/10 00:19:54;;;;;;;20.00;14.83;;;10.50;67.00;;;;;;4961012;28;46612;-64
2022/05/10 00:22:20;;;;;;;19.90;14.27;;;10.40;68.20;;;;;;4964203;28;45773;-64
2022/05/10 00:24:46;;;;;;;21.17;15.97;;;10.30;67.30;;;;;;4961849;28;46239;-64
2022/05/10 00:27:12;;;;;;;18.27;14.60;;;10.30;67.50;;;;;;4962775;28;46389;-64
2022/05/10 00:29:37;;;;;;;19.90;15.50;;;10.30;67.50;;;;;;4961771;28;46414;-64
2022/05/10 00:32:03;;;;;;;24.20;16.40;;;10.30;67.40;;;;;;4962868;28;46327;-64
2022/05/10 00:34:29;;;;;;;22.00;15.90;;;10.30;67.30;;;;;;4962775;28;46426;-64
2022/05/10 00:36:56;;;;;;;25.23;16.57;;;10.30;67.30;;;;;;4961441;28;46446;-64
2022/05/10 00:39:22;;;;;;;20.97;16.10;;;10.30;67.30;;;;;;4961443;28;48460;-64
2022/05/10 00:41:58;;;;;;;20.53;14.50;;;10.30;67.30;;;;;;4959734;28;46410;-65
2022/05/10 00:44:51;;;;;;;19.13;14.87;;;10.30;67.30;;;;;;4964322;28;45939;-65
2022/05/10 00:47:29;;;;;;;20.70;15.80;;;10.20;67.50;;;;;;4964790;28;46328;-64
2022/05/10 00:50:16;;;;;;;21.67;15.23;;;10.20;67.40;;;;;;4961888;28;46395;-64
2022/05/10 00:52:59;;;;;;;22.90;16.73;;;10.20;67.40;;;;;;4961523;28;45804;-64
2022/05/10 00:55:35;;;;;;;23.87;14.73;;;10.20;67.40;;;;;;4960777;28;46401;-65
2022/05/10 00:58:20;;;;;;;21.27;15.10;;;10.20;67.30;;;;;;4959651;28;46451;-65
2022/05/10 01:00:46;;;;;;;20.50;13.30;;;10.20;67.30;;;;;;4959138;28;46388;-65
2022/05/10 01:03:24;;;;;;;16.50;12.83;;;10.20;67.30;;;;;;4961765;28;46260;-64
2022/05/10 01:06:08;;;;;;;16.80;12.30;;;10.10;67.30;;;;;;4961250;28;46844;-64
2022/05/10 01:08:53;;;;;;;23.57;13.13;;;10.00;67.50;;;;;;4959848;28;46297;-64
2022/05/10 01:11:30;;;;;;;19.20;12.63;;;10.00;67.60;;;;;;4960309;28;47156;-64
2022/05/10 01:13:58;;;;;;;16.63;12.10;;;10.00;67.60;;;;;;4959745;28;46383;-64
2022/05/10 01:16:24;;;;;;;15.30;11.17;;;9.90;68.80;;;;;;4959817;28;46678;-64
2022/05/10 01:18:51;;;;;;;18.30;14.20;;;9.80;69.00;;;;;;4958689;28;46343;-64
2022/05/10 01:21:47;;;;;;;19.60;12.00;;;9.80;69.20;;;;;;4960314;28;47011;-64
2022/05/10 01:24:41;;;;;;;17.30;12.80;;;9.70;69.70;;;;;;4959593;28;46418;-64
2022/05/10 01:27:40;;;;;;;23.40;13.23;;;9.50;70.00;;;;;;4960781;28;46403;-63
2022/05/10 01:30:29;;;;;;;16.10;12.70;;;9.50;70.20;;;;;;4960861;28;46095;-63
2022/05/10 01:36:23;;;;;;;18.87;12.37;;;9.50;70.00;;;;;;4958423;28;46313;-64
2022/05/10 01:39:00;;;;;;;17.90;14.20;;;9.50;69.90;;;;;;4960038;28;45819;-64
2022/05/10 01:41:44;;;;;;;19.43;13.87;;;9.50;69.70;;;;;;4960085;28;46485;-62
2022/05/10 01:44:28;;;;;;;19.23;13.10;;;9.50;69.60;;;;;;4960562;28;46745;-63
2022/05/10 01:47:08;;;;;;;21.97;12.93;;;9.50;69.50;;;;;;4958633;28;45743;-64
2022/05/10 01:50:13;;;;;;;21.70;12.20;;;9.50;69.60;;;;;;4960448;28;46486;-65
2022/05/10 01:53:10;;;;;;;13.93;11.90;;;9.50;69.70;;;;;;4960863;28;46431;-65
2022/05/10 01:55:45;;;;;;;15.67;11.97;;;9.40;69.70;;;;;;4956378;28;47310;-65
2022/05/10 01:58:14;;;;;;;20.40;11.80;;;9.40;69.50;;;;;;4960457;28;46391;-64
2022/05/10 02:00:42;;;;;;;17.33;11.30;;;9.40;69.50;;;;;;4956258;28;46477;-64
2022/05/10 02:03:34;;;;;;;17.33;12.53;;;9.40;69.50;;;;;;4955191;28;46368;-62
2022/05/10 02:06:27;;;;;;;16.87;13.13;;;9.40;69.70;;;;;;4953916;28;46293;-65
2022/05/10 02:09:19;;;;;;;14.60;11.30;;;9.40;69.50;;;;;;4950865;28;45893;-64
2022/05/10 02:11:52;;;;;;;14.80;11.10;;;9.30;69.70;;;;;;4953844;28;45850;-65
2022/05/10 02:14:28;;;;;;;12.63;10.37;;;9.30;69.40;;;;;;4953634;28;46575;-65
2022/05/10 02:17:18;;;;;;;12.57;9.47;;;9.20;69.50;;;;;;4955335;28;47301;-65
2022/05/10 02:19:53;;;;;;;12.10;9.37;;;9.20;69.50;;;;;;4955013;28;45786;-64
2022/05/10 02:22:53;;;;;;;11.40;9.60;;;9.10;69.40;;;;;;4953516;28;46495;-65
2022/05/10 02:25:24;;;;;;;13.87;10.40;;;9.10;69.60;;;;;;4945559;28;46465;-65
2022/05/10 02:28:03;;;;;;;13.87;10.20;;;9.00;69.50;;;;;;4956178;28;46395;-63
2022/05/10 02:30:31;;;;;;;13.10;10.80;;;9.00;70.80;;;;;;4954052;28;46381;-64
2022/05/10 02:33:09;;;;;;;14.67;10.57;;;9.00;69.60;;;;;;4952597;28;46412;-64
2022/05/10 02:35:40;;;;;;;15.53;11.00;;;9.00;70.90;;;;;;4956063;28;46403;-64
2022/05/10 02:38:06;;;;;;;14.87;11.60;;;9.00;69.50;;;;;;4960602;28;47738;-64
2022/05/10 02:40:32;;;;;;;16.63;11.33;;;9.00;69.50;;;;;;4961441;28;45840;-64
2022/05/10 02:42:59;;;;;;;15.87;12.47;;;9.10;69.40;;;;;;4960901;28;46379;-63
2022/05/10 02:45:25;;;;;;;14.90;12.43;;;9.10;69.40;;;;;;4963903;28;46623;-64
2022/05/10 02:47:51;;;;;;;17.80;12.17;;;9.10;69.40;;;;;;4963385;28;46450;-64
2022/05/10 02:50:43;;;;;;;16.33;12.43;;;9.10;69.30;;;;;;4960008;28;45848;-63
2022/05/10 02:53:08;;;;;;;16.17;13.60;;;9.10;69.40;;;;;;4962817;28;46437;-64
2022/05/10 02:56:05;;;;;;;18.83;14.20;;;9.10;69.30;;;;;;4959794;28;45920;-64
2022/05/10 02:58:49;;;;;;;22.07;15.90;;;9.10;69.40;;;;;;4947560;28;46646;-64
2022/05/10 03:01:22;;;;;;;26.27;17.50;;;9.10;69.20;;;;;;4962314;28;45789;-64
2022/05/10 03:03:47;;;;;;;24.90;16.90;;;9.20;70.40;;;;;;4963359;28;46462;-64
2022/05/10 03:06:19;;;;;;;26.20;17.37;;;9.20;69.20;;;;;;4962844;28;46543;-64
2022/05/10 03:08:48;;;;;;;23.60;16.87;;;9.20;69.30;;;;;;4961367;28;49307;-64
2022/05/10 03:11:15;;;;;;;23.63;14.70;;;9.10;69.40;;;;;;4962718;28;46642;-64
2022/05/10 03:13:42;;;;;;;20.07;13.87;;;9.20;69.50;;;;;;4963093;28;46466;-62
2022/05/10 03:16:08;;;;;;;21.00;14.57;;;9.10;69.50;;;;;;4963077;28;46576;-62
2022/05/10 03:18:33;;;;;;;19.90;14.20;;;9.10;69.50;;;;;;4962996;28;46673;-64
2022/05/10 03:20:59;;;;;;;19.60;14.33;;;9.00;69.50;;;;;;4963089;28;46328;-62
2022/05/10 03:23:27;;;;;;;19.90;14.70;;;9.00;69.60;;;;;;4962933;28;46485;-63
2022/05/10 03:25:53;;;;;;;21.13;15.70;;;9.00;69.60;;;;;;4961326;28;46578;-64
2022/05/10 03:28:19;;;;;;;20.03;15.40;;;9.10;69.70;;;;;;4962833;28;46468;-63
2022/05/10 03:30:45;;;;;;;21.23;16.70;;;9.10;69.70;;;;;;4962472;28;46372;-64
2022/05/10 03:33:11;;;;;;;23.23;16.50;;;9.10;69.70;;;;;;4963112;28;46369;-64
2022/05/10 03:35:36;;;;;;;25.30;16.33;;;9.10;71.00;;;;;;4962125;28;46530;-65
2022/05/10 03:38:02;;;;;;;26.40;16.30;;;9.10;70.00;;;;;;4962840;28;46627;-64
2022/05/10 03:40:27;;;;;;;21.90;16.83;;;9.20;70.10;;;;;;4962641;28;46288;-64
2022/05/10 03:42:53;;;;;;;21.87;15.90;;;9.20;70.10;;;;;;4962271;28;46461;-63
2022/05/10 03:45:21;;;;;;;24.17;17.27;;;9.20;70.30;;;;;;4962168;28;46443;-64
2022/05/10 03:47:48;;;;;;;23.47;17.00;;;9.20;70.30;;;;;;4961761;28;46487;-63
2022/05/10 03:50:16;;;;;;;20.57;16.20;;;9.30;70.50;;;;;;4962715;28;46601;-64
2022/05/10 03:52:42;;;;;;;24.60;16.30;;;9.30;70.50;;;;;;4963122;28;45787;-63
2022/05/10 03:55:11;;;;;;;23.93;15.20;;;9.30;70.70;;;;;;4962309;28;46285;-63
2022/05/10 03:57:37;;;;;;;18.97;15.07;;;9.30;70.70;;;;;;4962242;28;46784;-64
2022/05/10 04:00:05;;;;;;;30.07;15.40;;;9.40;71.00;;;;;;4961862;28;46409;-63
2022/05/10 04:02:30;;;;;;;17.63;13.53;;;9.40;70.90;;;;;;4962653;28;46519;-64
2022/05/10 04:04:56;;;;;;;21.80;14.30;;;9.50;72.20;;;;;;4963128;28;46482;-64
2022/05/10 04:07:22;;;;;;;22.53;13.80;;;9.50;71.10;;;;;;4962336;28;47097;-63
2022/05/10 04:09:47;;;;;;;21.70;13.33;;;9.60;71.10;;;;;;4962295;28;46571;-63
2022/05/10 04:12:13;;;;;;;21.40;13.70;;;9.70;71.20;;;;;;4962892;28;46398;-64
2022/05/10 04:14:38;;;;;;;18.30;13.30;;;9.70;71.30;;;;;;4962619;28;46662;-64
2022/05/10 04:17:04;;;;;;;22.77;13.27;;;9.70;71.20;;;;;;4962272;28;46524;-64
2022/05/10 04:19:30;;;;;;;17.47;13.13;;;9.80;71.10;;;;;;4962492;28;46385;-63
2022/05/10 04:21:56;;;;;;;19.00;12.47;;;9.90;71.20;;;;;;4953704;28;45902;-63
2022/05/10 04:24:22;;;;;;;27.83;11.63;;;10.00;70.30;;;;;;4960034;28;46522;-64
2022/05/10 04:26:48;;;;;;;17.90;10.97;;;10.00;70.10;;;;;;4960966;28;46526;-64
2022/05/10 04:29:15;;;;;;;15.37;10.37;;;10.10;71.20;;;;;;4961678;28;46316;-62
2022/05/10 04:31:40;;;;;;;15.30;9.83;;;10.20;70.00;;;;;;4962830;28;46384;-64
2022/05/10 04:34:06;;;;;;;13.07;9.87;;;10.20;69.90;;;;;;4962471;28;46382;-64
2022/05/10 04:36:32;;;;;;;12.30;9.07;;;10.20;69.90;;;;;;4960529;28;47189;-64
2022/05/10 04:38:58;;;;;;;11.03;8.83;;;10.20;69.90;;;;;;4961689;28;46340;-63
2022/05/10 04:41:29;;;;;;;12.87;9.20;;;10.20;70.00;;;;;;4962006;28;46320;-64
2022/05/10 04:44:00;;;;;;;11.37;9.13;;;10.30;70.00;;;;;;4960496;28;45953;-63
2022/05/10 04:46:28;;;;;;;10.33;8.33;;;10.30;69.80;;;;;;4961380;28;47014;-63
2022/05/10 04:48:53;;;;;;;11.67;9.03;;;10.40;69.70;;;;;;4961417;28;46373;-63
2022/05/10 04:51:19;;;;;;;9.93;8.07;;;10.60;69.40;;;;;;4962617;28;46746;-64
2022/05/10 04:53:45;;;;;;;13.53;7.30;;;11.60;68.40;;;;;;4961883;28;46665;-65
2022/05/10 04:56:10;;;;;;;8.40;6.40;;;13.00;68.30;;;;;;4961410;28;46452;-64
2022/05/10 04:58:36;;;;;;;8.10;5.30;;;14.30;66.20;;;;;;4956788;28;46415;-63
2022/05/10 05:01:06;;;;;;;8.10;5.60;;;15.40;63.70;;;;;;4962099;28;46383;-63
2022/05/10 05:03:32;;;;;;;9.73;6.10;;;16.40;61.20;;;;;;4962859;28;46304;-64
2022/05/10 05:05:58;;;;;;;7.47;5.33;;;17.30;58.50;;;;;;4962374;28;46026;-64
2022/05/10 05:08:23;;;;;;;6.90;5.40;;;18.00;57.70;;;;;;4961499;28;46383;-63
2022/05/10 05:10:49;;;;;;;10.30;5.97;;;17.90;57.20;;;;;;4961728;28;46473;-63
2022/05/10 05:13:16;;;;;;;14.10;5.50;;;18.50;56.40;;;;;;4961786;28;46382;-64
2022/05/10 05:15:42;;;;;;;8.13;5.00;;;19.10;55.70;;;;;;4959168;28;46718;-63
2022/05/10 05:18:09;;;;;;;7.90;5.33;;;19.90;52.30;;;;;;4961076;28;46490;-63
2022/05/10 05:20:35;;;;;;;6.00;4.80;;;20.80;50.00;;;;;;4958226;28;46664;-65
2022/05/10 05:23:04;;;;;;;7.57;4.83;;;21.50;48.00;;;;;;4953932;28;46545;-65
2022/05/10 05:25:29;;;;;;;10.53;5.20;;;22.30;45.90;;;;;;4953461;28;46336;-63
2022/05/10 05:27:55;;;;;;;11.27;5.20;;;22.70;43.90;;;;;;4960128;28;46783;-64
2022/05/10 05:30:21;;;;;;;5.63;4.07;;;23.10;42.80;;;;;;4961534;28;46442;-64
2022/05/10 05:32:46;;;;;;;5.83;4.77;;;23.50;41.60;;;;;;4962006;28;46626;-63
2022/05/10 05:35:13;;;;;;;6.63;4.53;;;23.70;40.00;;;;;;4961180;28;47002;-64
2022/05/10 05:37:39;;;;;;;6.83;4.90;;;24.00;38.60;;;;;;4959123;28;46535;-64
2022/05/10 05:40:08;;;;;;;6.00;4.73;;;24.30;38.00;;;;;;4961404;28;46369;-65
2022/05/10 05:42:34;;;;;;;6.20;4.87;;;24.60;38.10;;;;;;4959518;28;46363;-63
2022/05/10 05:45:01;;;;;;;7.90;4.47;;;24.80;36.50;;;;;;4961184;28;46417;-64
2022/05/10 05:47:26;;;;;;;15.17;4.87;;;24.70;34.80;;;;;;4960916;28;46277;-64
2022/05/10 05:49:52;;;;;;;7.03;4.37;;;24.90;33.70;;;;;;4960991;28;46416;-64
2022/05/10 05:52:20;;;;;;;9.13;4.80;;;25.20;32.90;;;;;;4961585;28;46367;-64
2022/05/10 05:54:46;;;;;;;7.03;4.60;;;25.20;32.30;;;;;;4961009;28;47268;-65
2022/05/10 05:57:12;;;;;;;8.07;5.60;;;25.40;31.80;;;;;;4959870;28;46268;-64
2022/05/10 05:59:37;;;;;;;5.53;4.50;;;25.60;31.60;;;;;;4960591;28;46296;-63
2022/05/10 06:02:08;;;;;;;5.70;4.70;;;25.80;30.70;;;;;;4961287;28;46617;-62
2022/05/10 06:04:34;;;;;;;6.90;4.40;;;26.00;30.70;;;;;;4956426;28;46513;-64
2022/05/10 06:06:59;;;;;;;7.03;4.50;;;26.20;30.10;;;;;;4956009;28;46339;-63
2022/05/10 06:09:25;;;;;;;7.93;5.00;;;26.40;29.60;;;;;;4958546;28;46317;-63
2022/05/10 06:11:51;;;;;;;5.90;4.80;;;26.50;28.60;;;;;;4962675;28;46607;-63
2022/05/10 06:14:16;;;;;;;6.00;4.40;;;26.60;27.70;;;;;;4963531;28;46380;-62
2022/05/10 06:16:42;;;;;;;6.50;4.80;;;26.70;27.80;;;;;;4964219;28;46382;-63
2022/05/10 06:19:09;;;;;;;12.00;4.77;;;26.00;29.60;;;;;;4964383;28;46312;-64
2022/05/10 06:21:35;;;;;;;6.50;4.70;;;24.50;33.90;;;;;;4965120;28;46293;-63
2022/05/10 06:24:01;;;;;;;8.13;5.60;;;23.40;37.20;;;;;;4960766;28;46683;-64
2022/05/10 06:26:26;;;;;;;6.40;4.70;;;22.80;38.60;;;;;;4964139;28;46434;-64
2022/05/10 06:28:52;;;;;;;6.70;5.00;;;22.70;38.30;;;;;;4965151;28;45860;-64
2022/05/10 06:31:18;;;;;;;13.60;4.60;;;23.60;34.50;;;;;;4964905;28;46568;-64
2022/05/10 06:33:43;;;;;;;6.00;4.80;;;24.20;31.90;;;;;;4965526;28;47304;-64
2022/05/10 06:36:09;;;;;;;10.67;5.67;;;24.90;29.30;;;;;;4964421;28;46476;-64
2022/05/10 06:38:36;;;;;;;9.07;5.67;;;25.30;28.00;;;;;;4965185;28;45956;-64
2022/05/10 06:41:04;;;;;;;7.10;5.03;;;25.60;27.00;;;;;;4964816;28;46580;-63
2022/05/10 06:43:35;;;;;;;7.03;4.50;;;25.80;26.40;;;;;;4957171;28;46306;-62
2022/05/10 06:46:03;;;;;;;7.37;5.10;;;26.00;26.50;;;;;;4960375;28;46447;-62
2022/05/10 06:48:29;;;;;;;9.23;5.57;;;25.80;26.40;;;;;;4959635;28;46448;-63
2022/05/10 06:50:56;;;;;;;10.10;5.37;;;25.20;28.20;;;;;;4959216;28;46439;-63
2022/05/10 06:53:23;;;;;;;7.40;4.67;;;24.30;30.50;;;;;;4958918;28;46927;-63
2022/05/10 06:55:50;;;;;;;8.00;4.77;;;23.40;33.30;;;;;;4960318;28;46468;-63
2022/05/10 06:58:15;;;;;;;7.13;4.40;;;22.70;35.30;;;;;;4961147;28;46402;-63
2022/05/10 07:00:41;;;;;;;6.60;4.60;;;22.20;36.10;;;;;;4961196;28;46356;-64
2022/05/10 07:03:10;;;;;;;6.93;4.70;;;21.90;37.50;;;;;;4959126;28;46379;-62
2022/05/10 07:05:36;;;;;;;8.10;4.80;;;21.70;37.60;;;;;;4960645;28;46519;-62
2022/05/10 07:08:01;;;;;;;8.53;5.20;;;21.60;37.40;;;;;;4961956;28;46443;-62
2022/05/10 07:10:27;;;;;;;8.20;4.97;;;21.50;37.20;;;;;;4960352;28;46395;-63
2022/05/10 07:12:54;;;;;;;9.67;5.30;;;21.30;37.30;;;;;;4961359;28;47143;-63
2022/05/10 07:15:22;;;;;;;7.50;5.17;;;21.10;37.30;;;;;;4962734;28;46431;-63
2022/05/10 07:17:48;;;;;;;7.60;5.93;;;21.00;37.90;;;;;;4958964;28;46368;-63
2022/05/10 07:20:17;;;;;;;9.80;6.17;;;20.90;38.00;;;;;;4961767;28;46367;-63
2022/05/10 07:22:43;;;;;;;8.63;5.97;;;21.00;38.20;;;;;;4957606;28;46415;-63
2022/05/10 07:25:12;;;;;;;8.57;6.10;;;21.00;38.20;;;;;;4962220;28;46551;-62
2022/05/10 07:27:39;;;;;;;7.13;5.53;;;20.90;38.40;;;;;;4961184;28;46292;-62
2022/05/10 07:30:05;;;;;;;9.63;5.80;;;21.00;38.50;;;;;;4961418;28;46555;-63
2022/05/10 07:32:30;;;;;;;7.53;5.13;;;21.10;38.70;;;;;;4958002;28;46537;-62
2022/05/10 07:34:56;;;;;;;9.53;5.90;;;21.10;38.50;;;;;;4956953;28;46481;-63
2022/05/10 07:37:22;;;;;;;8.67;6.50;;;21.20;38.50;;;;;;4952344;28;46489;-63
2022/05/10 07:39:48;;;;;;;11.23;6.47;;;21.00;39.20;;;;;;4957512;28;46838;-64
2022/05/10 07:42:13;;;;;;;11.20;5.80;;;21.10;39.80;;;;;;4955662;28;46404;-63
2022/05/10 07:44:39;;;;;;;8.50;5.23;;;21.10;39.80;;;;;;4962129;28;46380;-63
2022/05/10 07:47:05;;;;;;;9.90;6.20;;;21.20;39.70;;;;;;4959822;28;46466;-63
2022/05/10 07:49:30;;;;;;;8.60;5.80;;;21.20;39.70;;;;;;4960422;28;46596;-64
2022/05/10 07:51:56;;;;;;;9.43;5.47;;;21.20;40.00;;;;;;4961512;28;46972;-64
2022/05/10 07:54:21;;;;;;;12.33;5.90;;;21.30;40.10;;;;;;4960794;28;46730;-63
2022/05/10 07:56:47;;;;;;;9.00;5.70;;;21.30;40.10;;;;;;4962307;28;46285;-65
2022/05/10 07:59:12;;;;;;;8.57;6.43;;;21.50;39.80;;;;;;4957246;28;46368;-62
2022/05/10 08:01:38;;;;;;;9.07;5.97;;;21.60;39.50;;;;;;4959131;28;46337;-63
2022/05/10 08:04:04;;;;;;;7.60;5.67;;;21.70;39.40;;;;;;4959051;28;46483;-63
2022/05/10 08:06:30;;;;;;;10.33;5.73;;;21.80;39.20;;;;;;4960143;28;46387;-64
2022/05/10 08:08:55;;;;;;;10.20;6.20;;;21.80;39.20;;;;;;4960413;28;46786;-63
2022/05/10 08:11:21;;;;;;;8.83;6.10;;;21.70;39.30;;;;;;4961139;28;46403;-64
2022/05/10 08:13:47;;;;;;;6.93;6.17;;;21.60;39.40;;;;;;4960711;28;46327;-65
2022/05/10 08:16:13;;;;;;;7.30;5.03;;;21.50;40.20;;;;;;4961380;28;46627;-64
2022/05/10 08:18:41;;;;;;;6.87;5.40;;;21.50;40.00;;;;;;4959794;28;46644;-64
2022/05/10 08:21:07;;;;;;;9.07;6.10;;;21.70;40.10;;;;;;4961423;28;46390;-64
2022/05/10 08:23:36;;;;;;;8.57;6.47;;;22.00;39.70;;;;;;4958874;28;46469;-64
2022/05/10 08:26:03;;;;;;;9.70;6.40;;;22.20;39.40;;;;;;4961593;28;46313;-64
2022/05/10 08:28:30;;;;;;;9.77;6.23;;;22.30;39.10;;;;;;4961319;28;46565;-64
2022/05/10 08:30:57;;;;;;;12.30;6.07;;;22.30;39.10;;;;;;4960404;28;46414;-64
2022/05/10 08:33:28;;;;;;;8.80;5.90;;;22.30;38.90;;;;;;4960318;28;46790;-64
2022/05/10 08:35:55;;;;;;;12.57;6.10;;;22.40;39.20;;;;;;4961991;28;46279;-66
2022/05/10 08:38:21;;;;;;;9.80;6.10;;;22.60;39.00;;;;;;4951878;28;46352;-65
2022/05/10 08:41:11;;;;;;;10.47;6.30;;;22.80;39.00;;;;;;4961019;28;47042;-65
2022/05/10 08:43:54;;;;;;;8.80;5.53;;;22.50;38.30;;;;;;4959822;28;46463;-63
2022/05/10 08:46:27;;;;;;;9.50;5.90;;;22.20;38.90;;;;;;4960161;28;46301;-63
2022/05/10 08:48:58;;;;;;;9.47;6.33;;;22.10;39.10;;;;;;4959828;28;46460;-64
2022/05/10 08:51:24;;;;;;;8.03;6.33;;;22.00;38.70;;;;;;4960357;28;46631;-64
2022/05/10 08:53:50;;;;;;;10.47;6.57;;;22.00;38.60;;;;;;4960063;28;46533;-64
2022/05/10 08:56:24;;;;;;;7.43;5.83;;;22.30;38.20;;;;;;4961468;28;46174;-64
2022/05/10 08:59:28;;;;;;;11.70;6.30;;;22.70;37.60;;;;;;4957461;28;46431;-65
2022/05/10 09:02:04;;;;;;;11.63;6.30;;;22.90;36.70;;;;;;4946057;28;46426;-64
2022/05/10 09:05:06;;;;;;;9.40;6.00;;;23.10;36.90;;;;;;4959439;28;46493;-64
2022/05/10 09:07:44;;;;;;;7.47;5.80;;;23.00;36.90;;;;;;4962225;28;45904;-62
2022/05/10 09:10:22;;;;;;;8.60;5.93;;;23.10;36.90;;;;;;4958649;28;46495;-64
2022/05/10 09:12:58;;;;;;;8.03;5.30;;;23.20;37.00;;;;;;4959677;28;48159;-65
2022/05/10 09:15:26;;;;;;;8.97;6.57;;;23.20;37.00;;;;;;4960735;28;46444;-64
2022/05/10 09:17:51;;;;;;;11.33;5.73;;;23.20;37.00;;;;;;4957596;28;46324;-64
2022/05/10 09:20:17;;;;;;;9.50;6.60;;;23.20;37.00;;;;;;4958436;28;46517;-63
2022/05/10 09:23:15;;;;;;;7.43;5.77;;;23.30;37.10;;;;;;4960162;28;46772;-65
2022/05/10 09:25:45;;;;;;;14.73;6.80;;;23.40;37.20;;;;;;4957713;28;46525;-64
2022/05/10 09:28:20;;;;;;;10.00;5.57;;;23.50;36.40;;;;;;4961851;28;46719;-68
2022/05/10 09:36:24;;;;;;;9.87;6.27;;;23.40;35.90;;;;;;4959948;28;46718;-66
2022/05/10 09:38:51;;;;;;;7.27;5.33;;;23.50;35.80;;;;;;4960831;28;46452;-66
2022/05/10 09:41:31;;;;;;;8.70;5.47;;;23.50;35.50;;;;;;4956958;28;46690;-66
2022/05/10 09:43:57;;;;;;;8.53;5.20;;;23.70;34.20;;;;;;4959541;28;46488;-65
2022/05/10 09:46:27;;;;;;;6.30;4.93;;;24.00;33.50;;;;;;4960416;28;46337;-65
2022/05/10 09:48:54;;;;;;;10.50;5.67;;;24.10;32.50;;;;;;4957407;28;46442;-65
2022/05/10 09:51:36;;;;;;;6.20;4.93;;;24.20;31.30;;;;;;4958073;28;46478;-65
2022/05/10 09:54:04;;;;;;;7.27;5.60;;;24.10;31.10;;;;;;4959338;28;46454;-66
2022/05/10 09:56:32;;;;;;;9.23;5.80;;;24.10;31.00;;;;;;4959459;28;46519;-65
2022/05/10 09:59:04;;;;;;;14.30;6.40;;;24.10;31.00;;;;;;4958666;28;46437;-64
2022/05/10 10:02:00;;;;;;;11.20;5.97;;;24.00;31.40;;;;;;4957653;28;46498;-66
2022/05/10 10:04:31;;;;;;;8.57;5.70;;;24.10;32.20;;;;;;4955264;28;46437;-65
2022/05/10 10:07:32;;;;;;;7.20;5.30;;;24.20;31.70;;;;;;4959681;28;46433;-65
2022/05/10 10:10:23;;;;;;;11.13;5.07;;;24.40;31.20;;;;;;4938179;28;46476;-63
2022/05/10 10:12:49;;;;;;;9.10;5.07;;;24.50;29.90;;;;;;4956578;28;46513;-65
2022/05/10 10:15:33;;;;;;;7.70;5.00;;;24.40;30.00;;;;;;4959535;28;47982;-64
2022/05/10 10:18:03;;;;;;;6.97;5.10;;;24.50;30.00;;;;;;4960910;28;46451;-64
2022/05/10 10:20:45;;;;;;;6.70;4.80;;;24.50;30.00;;;;;;4956917;28;46298;-65
2022/05/10 10:23:27;;;;;;;8.17;5.87;;;24.60;29.50;;;;;;4956135;28;46433;-65
2022/05/10 10:25:57;;;;;;;13.27;5.67;;;24.60;29.60;;;;;;4957512;28;46127;-66
2022/05/10 10:28:28;;;;;;;12.03;4.97;;;24.60;29.80;;;;;;4959941;28;46534;-64
2022/05/10 10:31:05;;;;;;;7.70;4.43;;;24.70;29.30;;;;;;4958551;28;46454;-66
2022/05/10 10:33:50;;;;;;;10.20;5.13;;;24.70;29.10;;;;;;4958794;28;46321;-64
2022/05/10 10:36:31;;;;;;;7.73;5.27;;;24.60;29.20;;;;;;4959585;28;46388;-63
2022/05/10 10:39:01;;;;;;;7.10;5.23;;;24.60;28.70;;;;;;4959017;28;46474;-66
2022/05/10 10:41:56;;;;;;;9.10;5.37;;;24.70;29.20;;;;;;4956966;28;46428;-65
2022/05/10 10:44:30;;;;;;;6.53;4.40;;;24.80;29.60;;;;;;4956744;28;46530;-65
2022/05/10 10:47:13;;;;;;;7.57;4.80;;;24.70;29.00;;;;;;4958655;28;46413;-64
2022/05/10 10:49:52;;;;;;;7.63;5.23;;;24.70;28.90;;;;;;4954330;28;46368;-64
2022/05/10 10:52:18;;;;;;;8.70;5.23;;;24.80;29.30;;;;;;4957054;28;46566;-66
2022/05/10 10:54:45;;;;;;;8.90;5.70;;;24.70;29.50;;;;;;4955519;28;46691;-65
2022/05/10 10:57:13;;;;;;;6.13;5.00;;;24.60;29.50;;;;;;4961126;28;47199;-64
2022/05/10 10:59:48;;;;;;;7.87;4.83;;;24.70;29.20;;;;;;4961960;28;46449;-64
2022/05/10 11:02:46;;;;;;;7.77;4.40;;;24.80;28.80;;;;;;4959805;28;46551;-65
2022/05/10 11:05:29;;;;;;;7.93;4.90;;;24.90;29.10;;;;;;4950496;28;46434;-65
2022/05/10 11:08:18;;;;;;;6.90;5.10;;;24.90;29.20;;;;;;4962755;28;46891;-66
2022/05/10 11:11:11;;;;;;;7.23;5.13;;;24.70;29.10;;;;;;4957595;28;45805;-65
2022/05/10 11:13:49;;;;;;;8.70;4.97;;;24.60;29.20;;;;;;4962078;28;46356;-65
2022/05/10 11:16:45;;;;;;;7.23;4.60;;;24.70;29.70;;;;;;4961335;28;46336;-66
2022/05/10 11:19:32;;;;;;;11.23;4.70;;;24.90;29.30;;;;;;4961389;28;47219;-65
2022/05/10 11:22:34;;;;;;;5.17;4.13;;;25.00;28.70;;;;;;4960759;28;46418;-65
2022/05/10 11:25:36;;;;;;;8.63;4.70;;;25.00;28.60;;;;;;4959844;28;46448;-66
2022/05/10 11:28:57;;;;;;;7.77;4.33;;;25.10;28.40;;;;;;4962717;28;46329;-64
2022/05/10 11:31:45;;;;;;;9.53;4.63;;;25.10;28.40;;;;;;4955944;28;46662;-64
2022/05/10 11:34:36;;;;;;;9.00;4.10;;;25.20;28.30;;;;;;4959553;28;46504;-63
2022/05/10 11:37:04;;;;;;;6.33;4.57;;;25.20;28.10;;;;;;4962252;28;46512;-64
2022/05/10 11:39:39;;;;;;;6.57;4.90;;;25.20;27.80;;;;;;4962185;28;46325;-64
2022/05/10 11:42:15;;;;;;;6.87;4.63;;;25.10;27.70;;;;;;4960335;28;46455;-64
2022/05/10 11:45:17;;;;;;;7.30;5.10;;;25.00;28.00;;;;;;4961403;28;45909;-65
2022/05/10 11:48:16;;;;;;;15.77;6.07;;;25.00;27.40;;;;;;4962905;28;46423;-65
2022/05/10 11:51:38;;;;;;;8.97;4.87;;;25.00;27.80;;;;;;4961361;28;46336;-63
2022/05/10 11:54:16;;;;;;;6.33;4.50;;;25.10;27.40;;;;;;4948592;28;48275;-64
2022/05/10 11:56:44;;;;;;;9.87;4.10;;;25.20;27.70;;;;;;4961877;28;46313;-65
2022/05/10 11:59:35;;;;;;;7.23;4.20;;;25.20;27.40;;;;;;4961295;28;46296;-65
2022/05/10 12:02:03;;;;;;;9.10;4.60;;;25.20;26.50;;;;;;4958096;28;46403;-64
2022/05/10 12:04:37;;;;;;;5.40;4.23;;;25.10;26.60;;;;;;4957571;28;46383;-63
2022/05/10 12:07:23;;;;;;;12.10;4.10;;;24.90;26.70;;;;;;4959986;28;46455;-66
2022/05/10 12:09:52;;;;;;;7.03;3.73;;;24.90;25.90;;;;;;4959211;28;46405;-67
2022/05/10 12:12:32;;;;;;;6.57;4.23;;;24.90;25.90;;;;;;4958253;28;46429;-64
2022/05/10 12:21:28;;;;;;;8.73;3.13;;;25.20;26.10;;;;;;4959009;28;46304;-64
2022/05/10 12:24:19;;;;;;;5.90;2.70;;;25.30;26.10;;;;;;4963502;28;46427;-64
2022/05/10 12:26:53;;;;;;;6.17;2.80;;;25.40;25.10;;;;;;4963901;28;47035;-63
2022/05/10 12:29:31;;;;;;;5.53;2.33;;;25.30;24.10;;;;;;4961970;28;46425;-64
2022/05/10 12:32:01;;;;;;;6.20;2.80;;;25.30;23.30;;;;;;4960964;28;45805;-63
2022/05/10 12:34:39;;;;;;;2.90;1.90;;;25.20;23.20;;;;;;4953770;28;46433;-64
2022/05/10 12:37:24;;;;;;;4.03;2.13;;;25.20;22.70;;;;;;4958405;28;47201;-65
2022/05/10 12:39:54;;;;;;;3.90;2.33;;;25.50;22.30;;;;;;4961225;28;46475;-63
2022/05/10 12:42:39;;;;;;;6.67;2.93;;;25.70;22.10;;;;;;4956258;28;46566;-63
2022/05/10 12:45:26;;;;;;;4.63;2.53;;;25.70;21.00;;;;;;4960128;28;46728;-62
2022/05/10 12:48:25;;;;;;;8.07;2.73;;;25.60;21.40;;;;;;4956904;28;46136;-64
2022/05/10 12:51:15;;;;;;;4.47;2.80;;;25.70;21.30;;;;;;4959319;28;46419;-62
2022/05/10 12:54:02;;;;;;;6.43;3.10;;;25.70;21.10;;;;;;4958496;28;46482;-65
2022/05/10 12:56:42;;;;;;;5.53;3.07;;;25.70;21.90;;;;;;4961048;28;46357;-63
2022/05/10 12:59:34;;;;;;;4.67;2.70;;;25.50;22.10;;;;;;4959205;28;46435;-62
2022/05/10 13:02:03;;;;;;;3.80;2.70;;;25.40;22.40;;;;;;4960334;28;46391;-63
2022/05/10 13:04:42;;;;;;;5.23;3.10;;;25.10;22.50;;;;;;4960150;28;46486;-65
2022/05/10 13:07:45;;;;;;;4.27;3.13;;;25.00;22.10;;;;;;4961349;28;46473;-64
2022/05/10 13:10:16;;;;;;;5.10;3.10;;;25.30;22.40;;;;;;4958092;28;46481;-64
2022/05/10 13:12:46;;;;;;;9.83;3.00;;;25.60;22.10;;;;;;4959049;28;46338;-65
2022/05/10 13:15:20;;;;;;;6.80;3.00;;;25.80;21.90;;;;;;4958578;28;46717;-64
2022/05/10 13:17:52;;;;;;;11.17;4.40;;;25.80;21.20;;;;;;4958892;28;46627;-64
2022/05/10 13:20:22;;;;;;;6.00;3.13;;;25.90;21.20;;;;;;4960635;28;46320;-62
2022/05/10 13:22:58;;;;;;;4.17;2.97;;;26.00;20.30;;;;;;4959359;28;45963;-64
2022/05/10 13:25:29;;;;;;;4.50;3.00;;;26.10;20.50;;;;;;4954180;28;46406;-64